sensor_id;sensor_type;location;lat;lon;timestamp;P1;durP1;ratioP1;P2;durP2;ratioP2
21581;SDS011;10952;50.836;4.348;2023-09-30T00:01:11;18.63;;;10.23;;
21581;SDS011;10952;50.836;4.348;2023-09-30T00:03:36;14.87;;;8.63;;
21581;SDS011;10952;50.836;4.348;2023-09-30T00:06:02;16.60;;;8.57;;
21581;SDS011;10952;50.836;4.348;2023-09-30T00:08:29;14.20;;;7.70;;
21581;SDS011;10952;50.836;4.348;2023-09-30T00:10:54;14.47;;;7.57;;
21581;SDS011;10952;50.836;4.348;2023-09-30T00:13:20;14.13;;;7.60;;
21581;SDS011;10952;50.836;4.348;2023-09-30T00:15:46;14.80;;;7.63;;
21581;SDS011;10952;50.836;4.348;2023-09-30T00:18:12;16.00;;;8.30;;
21581;SDS011;10952;50.836;4.348;2023-09-30T00:20:38;18.00;;;7.93;;
21581;SDS011;10952;50.836;4.348;2023-09-30T00:23:04;14.90;;;8.17;;
21581;SDS011;10952;50.836;4.348;2023-09-30T00:25:31;15.03;;;8.43;;
21581;SDS011;10952;50.836;4.348;2023-09-30T00:27:57;17.07;;;9.17;;
21581;SDS011;10952;50.836;4.348;2023-09-30T00:30:23;20.03;;;9.37;;
21581;SDS011;10952;50.836;4.348;2023-09-30T00:32:48;17.80;;;8.83;;
21581;SDS011;10952;50.836;4.348;2023-09-30T00:35:14;15.93;;;8.83;;
21581;SDS011;10952;50.836;4.348;2023-09-30T00:37:41;14.20;;;8.53;;
21581;SDS011;10952;50.836;4.348;2023-09-30T00:40:07;17.73;;;9.00;;
21581;SDS011;10952;50.836;4.348;2023-09-30T00:42:39;15.07;;;8.50;;
21581;SDS011;10952;50.836;4.348;2023-09-30T00:45:06;18.77;;;9.17;;
21581;SDS011;10952;50.836;4.348;2023-09-30T00:47:34;16.33;;;8.43;;
21581;SDS011;10952;50.836;4.348;2023-09-30T00:50:01;19.07;;;9.13;;
21581;SDS011;10952;50.836;4.348;2023-09-30T00:52:28;15.37;;;9.17;;
21581;SDS011;10952;50.836;4.348;2023-09-30T00:54:56;16.93;;;9.43;;
21581;SDS011;10952;50.836;4.348;2023-09-30T00:57:22;17.03;;;8.73;;
21581;SDS011;10952;50.836;4.348;2023-09-30T00:59:50;16.37;;;9.07;;
21581;SDS011;10952;50.836;4.348;2023-09-30T01:02:19;16.43;;;9.27;;
21581;SDS011;10952;50.836;4.348;2023-09-30T01:04:45;18.00;;;9.40;;
21581;SDS011;10952;50.836;4.348;2023-09-30T01:07:11;14.87;;;8.17;;
21581;SDS011;10952;50.836;4.348;2023-09-30T01:09:37;17.50;;;9.03;;
21581;SDS011;10952;50.836;4.348;2023-09-30T01:12:03;15.57;;;9.17;;
21581;SDS011;10952;50.836;4.348;2023-09-30T01:14:30;14.30;;;8.20;;
21581;SDS011;10952;50.836;4.348;2023-09-30T01:16:59;15.30;;;9.13;;
21581;SDS011;10952;50.836;4.348;2023-09-30T01:19:26;15.53;;;8.60;;
21581;SDS011;10952;50.836;4.348;2023-09-30T01:21:56;13.13;;;7.67;;
21581;SDS011;10952;50.836;4.348;2023-09-30T01:24:29;14.93;;;9.27;;
21581;SDS011;10952;50.836;4.348;2023-09-30T01:26:55;20.07;;;9.70;;
21581;SDS011;10952;50.836;4.348;2023-09-30T01:29:22;16.40;;;8.63;;
21581;SDS011;10952;50.836;4.348;2023-09-30T01:31:48;14.90;;;8.40;;
21581;SDS011;10952;50.836;4.348;2023-09-30T01:34:15;17.50;;;9.17;;
21581;SDS011;10952;50.836;4.348;2023-09-30T01:36:44;16.03;;;8.50;;
21581;SDS011;10952;50.836;4.348;2023-09-30T01:39:10;20.83;;;9.33;;
21581;SDS011;10952;50.836;4.348;2023-09-30T01:41:37;20.73;;;11.77;;
21581;SDS011;10952;50.836;4.348;2023-09-30T01:44:03;20.63;;;9.97;;
21581;SDS011;10952;50.836;4.348;2023-09-30T01:46:29;19.57;;;8.80;;
21581;SDS011;10952;50.836;4.348;2023-09-30T01:48:55;16.97;;;7.97;;
21581;SDS011;10952;50.836;4.348;2023-09-30T01:51:21;17.73;;;7.97;;
21581;SDS011;10952;50.836;4.348;2023-09-30T01:53:47;17.87;;;8.00;;
21581;SDS011;10952;50.836;4.348;2023-09-30T01:56:13;20.43;;;8.20;;
21581;SDS011;10952;50.836;4.348;2023-09-30T01:58:39;18.87;;;10.33;;
21581;SDS011;10952;50.836;4.348;2023-09-30T02:01:05;18.60;;;9.53;;
21581;SDS011;10952;50.836;4.348;2023-09-30T02:03:30;17.17;;;9.50;;
21581;SDS011;10952;50.836;4.348;2023-09-30T02:05:57;13.20;;;7.60;;
21581;SDS011;10952;50.836;4.348;2023-09-30T02:08:23;14.27;;;7.13;;
21581;SDS011;10952;50.836;4.348;2023-09-30T02:10:49;14.10;;;6.80;;
21581;SDS011;10952;50.836;4.348;2023-09-30T02:13:16;12.40;;;7.27;;
21581;SDS011;10952;50.836;4.348;2023-09-30T02:15:42;13.70;;;7.37;;
21581;SDS011;10952;50.836;4.348;2023-09-30T02:18:08;16.80;;;8.37;;
21581;SDS011;10952;50.836;4.348;2023-09-30T02:20:34;18.07;;;9.00;;
21581;SDS011;10952;50.836;4.348;2023-09-30T02:23:04;15.53;;;8.23;;
21581;SDS011;10952;50.836;4.348;2023-09-30T02:25:31;21.23;;;8.60;;
21581;SDS011;10952;50.836;4.348;2023-09-30T02:27:57;17.03;;;8.47;;
21581;SDS011;10952;50.836;4.348;2023-09-30T02:30:23;17.87;;;8.97;;
21581;SDS011;10952;50.836;4.348;2023-09-30T02:32:49;17.87;;;7.97;;
21581;SDS011;10952;50.836;4.348;2023-09-30T02:35:14;15.40;;;7.73;;
21581;SDS011;10952;50.836;4.348;2023-09-30T02:37:40;18.80;;;8.13;;
21581;SDS011;10952;50.836;4.348;2023-09-30T02:40:06;21.50;;;9.37;;
21581;SDS011;10952;50.836;4.348;2023-09-30T02:42:35;17.50;;;8.40;;
21581;SDS011;10952;50.836;4.348;2023-09-30T02:45:05;15.60;;;8.07;;
21581;SDS011;10952;50.836;4.348;2023-09-30T02:47:33;17.37;;;8.70;;
21581;SDS011;10952;50.836;4.348;2023-09-30T02:50:00;17.60;;;8.90;;
21581;SDS011;10952;50.836;4.348;2023-09-30T02:52:26;16.00;;;7.67;;
21581;SDS011;10952;50.836;4.348;2023-09-30T02:54:54;18.17;;;8.90;;
21581;SDS011;10952;50.836;4.348;2023-09-30T02:57:20;20.60;;;8.30;;
21581;SDS011;10952;50.836;4.348;2023-09-30T02:59:46;14.17;;;8.27;;
21581;SDS011;10952;50.836;4.348;2023-09-30T03:02:12;18.80;;;9.00;;
21581;SDS011;10952;50.836;4.348;2023-09-30T03:04:38;22.00;;;8.53;;
21581;SDS011;10952;50.836;4.348;2023-09-30T03:07:03;26.50;;;9.30;;
21581;SDS011;10952;50.836;4.348;2023-09-30T03:09:30;21.97;;;9.87;;
21581;SDS011;10952;50.836;4.348;2023-09-30T03:11:56;23.30;;;9.17;;
21581;SDS011;10952;50.836;4.348;2023-09-30T03:14:24;17.53;;;9.20;;
21581;SDS011;10952;50.836;4.348;2023-09-30T03:16:50;18.90;;;8.97;;
21581;SDS011;10952;50.836;4.348;2023-09-30T03:19:17;20.77;;;9.43;;
21581;SDS011;10952;50.836;4.348;2023-09-30T03:21:42;23.37;;;8.67;;
21581;SDS011;10952;50.836;4.348;2023-09-30T03:24:09;22.27;;;10.20;;
21581;SDS011;10952;50.836;4.348;2023-09-30T03:26:35;19.20;;;9.60;;
21581;SDS011;10952;50.836;4.348;2023-09-30T03:29:00;24.40;;;9.53;;
21581;SDS011;10952;50.836;4.348;2023-09-30T03:31:26;21.77;;;9.90;;
21581;SDS011;10952;50.836;4.348;2023-09-30T03:33:52;22.93;;;9.33;;
21581;SDS011;10952;50.836;4.348;2023-09-30T03:36:21;22.47;;;9.70;;
21581;SDS011;10952;50.836;4.348;2023-09-30T03:38:49;19.13;;;9.13;;
21581;SDS011;10952;50.836;4.348;2023-09-30T03:41:21;26.07;;;10.13;;
21581;SDS011;10952;50.836;4.348;2023-09-30T03:43:47;24.70;;;8.67;;
21581;SDS011;10952;50.836;4.348;2023-09-30T03:46:14;19.90;;;8.97;;
21581;SDS011;10952;50.836;4.348;2023-09-30T03:48:40;22.53;;;9.93;;
21581;SDS011;10952;50.836;4.348;2023-09-30T03:51:14;29.23;;;10.57;;
21581;SDS011;10952;50.836;4.348;2023-09-30T03:53:40;23.23;;;10.70;;
21581;SDS011;10952;50.836;4.348;2023-09-30T03:56:10;27.97;;;11.03;;
21581;SDS011;10952;50.836;4.348;2023-09-30T03:58:42;23.53;;;10.27;;
21581;SDS011;10952;50.836;4.348;2023-09-30T04:01:08;27.27;;;10.40;;
21581;SDS011;10952;50.836;4.348;2023-09-30T04:03:38;24.47;;;11.40;;
21581;SDS011;10952;50.836;4.348;2023-09-30T04:06:04;20.30;;;8.83;;
21581;SDS011;10952;50.836;4.348;2023-09-30T04:08:32;25.20;;;10.70;;
21581;SDS011;10952;50.836;4.348;2023-09-30T04:11:01;24.33;;;10.87;;
21581;SDS011;10952;50.836;4.348;2023-09-30T04:13:30;21.37;;;9.87;;
21581;SDS011;10952;50.836;4.348;2023-09-30T04:15:55;27.97;;;10.20;;
21581;SDS011;10952;50.836;4.348;2023-09-30T04:18:23;23.53;;;10.57;;
21581;SDS011;10952;50.836;4.348;2023-09-30T04:20:51;27.50;;;11.10;;
21581;SDS011;10952;50.836;4.348;2023-09-30T04:23:17;29.73;;;10.67;;
21581;SDS011;10952;50.836;4.348;2023-09-30T04:25:45;31.83;;;11.00;;
21581;SDS011;10952;50.836;4.348;2023-09-30T04:28:11;25.43;;;11.93;;
21581;SDS011;10952;50.836;4.348;2023-09-30T04:30:39;24.13;;;10.23;;
21581;SDS011;10952;50.836;4.348;2023-09-30T04:33:05;26.97;;;11.27;;
21581;SDS011;10952;50.836;4.348;2023-09-30T04:35:31;30.10;;;11.57;;
21581;SDS011;10952;50.836;4.348;2023-09-30T04:37:59;24.53;;;10.83;;
21581;SDS011;10952;50.836;4.348;2023-09-30T04:40:29;24.57;;;9.63;;
21581;SDS011;10952;50.836;4.348;2023-09-30T04:42:55;27.17;;;10.93;;
21581;SDS011;10952;50.836;4.348;2023-09-30T04:45:26;25.90;;;10.43;;
21581;SDS011;10952;50.836;4.348;2023-09-30T04:47:52;24.97;;;10.23;;
21581;SDS011;10952;50.836;4.348;2023-09-30T04:50:18;21.13;;;9.50;;
21581;SDS011;10952;50.836;4.348;2023-09-30T04:52:46;38.63;;;11.50;;
21581;SDS011;10952;50.836;4.348;2023-09-30T04:55:16;29.47;;;9.43;;
21581;SDS011;10952;50.836;4.348;2023-09-30T04:57:44;27.47;;;9.47;;
21581;SDS011;10952;50.836;4.348;2023-09-30T05:00:11;26.27;;;9.57;;
21581;SDS011;10952;50.836;4.348;2023-09-30T05:02:38;34.93;;;9.97;;
21581;SDS011;10952;50.836;4.348;2023-09-30T05:05:04;30.60;;;10.03;;
21581;SDS011;10952;50.836;4.348;2023-09-30T05:07:33;23.23;;;10.53;;
21581;SDS011;10952;50.836;4.348;2023-09-30T05:09:59;32.00;;;9.40;;
21581;SDS011;10952;50.836;4.348;2023-09-30T05:12:24;22.03;;;9.03;;
21581;SDS011;10952;50.836;4.348;2023-09-30T05:14:51;29.80;;;9.97;;
21581;SDS011;10952;50.836;4.348;2023-09-30T05:17:17;26.50;;;8.80;;
21581;SDS011;10952;50.836;4.348;2023-09-30T05:19:43;26.77;;;9.10;;
21581;SDS011;10952;50.836;4.348;2023-09-30T05:22:09;23.80;;;10.50;;
21581;SDS011;10952;50.836;4.348;2023-09-30T05:24:35;28.93;;;10.33;;
21581;SDS011;10952;50.836;4.348;2023-09-30T05:27:01;25.93;;;9.00;;
21581;SDS011;10952;50.836;4.348;2023-09-30T05:29:27;35.40;;;8.63;;
21581;SDS011;10952;50.836;4.348;2023-09-30T05:31:53;31.10;;;8.63;;
21581;SDS011;10952;50.836;4.348;2023-09-30T05:34:19;26.93;;;8.33;;
21581;SDS011;10952;50.836;4.348;2023-09-30T05:36:45;23.57;;;7.73;;
21581;SDS011;10952;50.836;4.348;2023-09-30T05:39:10;24.93;;;8.53;;
21581;SDS011;10952;50.836;4.348;2023-09-30T05:41:37;32.47;;;9.07;;
21581;SDS011;10952;50.836;4.348;2023-09-30T05:44:03;20.30;;;8.20;;
21581;SDS011;10952;50.836;4.348;2023-09-30T05:46:32;26.77;;;8.10;;
21581;SDS011;10952;50.836;4.348;2023-09-30T05:48:58;24.90;;;8.23;;
21581;SDS011;10952;50.836;4.348;2023-09-30T05:51:23;30.67;;;10.40;;
21581;SDS011;10952;50.836;4.348;2023-09-30T05:53:49;22.63;;;7.63;;
21581;SDS011;10952;50.836;4.348;2023-09-30T05:56:15;24.87;;;8.27;;
21581;SDS011;10952;50.836;4.348;2023-09-30T05:58:42;25.90;;;7.77;;
21581;SDS011;10952;50.836;4.348;2023-09-30T06:01:08;28.77;;;7.73;;
21581;SDS011;10952;50.836;4.348;2023-09-30T06:03:37;30.23;;;8.57;;
21581;SDS011;10952;50.836;4.348;2023-09-30T06:06:12;26.27;;;7.60;;
21581;SDS011;10952;50.836;4.348;2023-09-30T06:08:40;32.83;;;8.27;;
21581;SDS011;10952;50.836;4.348;2023-09-30T06:11:21;24.03;;;7.20;;
21581;SDS011;10952;50.836;4.348;2023-09-30T06:13:53;24.90;;;7.40;;
21581;SDS011;10952;50.836;4.348;2023-09-30T06:16:19;21.17;;;6.90;;
21581;SDS011;10952;50.836;4.348;2023-09-30T06:18:45;26.77;;;7.57;;
21581;SDS011;10952;50.836;4.348;2023-09-30T06:21:11;26.17;;;8.07;;
21581;SDS011;10952;50.836;4.348;2023-09-30T06:23:43;31.57;;;8.30;;
21581;SDS011;10952;50.836;4.348;2023-09-30T06:26:08;23.97;;;6.93;;
21581;SDS011;10952;50.836;4.348;2023-09-30T06:28:34;30.20;;;11.90;;
21581;SDS011;10952;50.836;4.348;2023-09-30T06:31:06;29.27;;;7.77;;
21581;SDS011;10952;50.836;4.348;2023-09-30T06:33:33;24.90;;;7.10;;
21581;SDS011;10952;50.836;4.348;2023-09-30T06:36:00;22.57;;;7.77;;
21581;SDS011;10952;50.836;4.348;2023-09-30T06:38:27;22.87;;;7.43;;
21581;SDS011;10952;50.836;4.348;2023-09-30T06:40:53;21.20;;;6.97;;
21581;SDS011;10952;50.836;4.348;2023-09-30T06:43:19;31.43;;;7.53;;
21581;SDS011;10952;50.836;4.348;2023-09-30T06:45:45;23.77;;;7.70;;
21581;SDS011;10952;50.836;4.348;2023-09-30T06:48:12;21.53;;;8.60;;
21581;SDS011;10952;50.836;4.348;2023-09-30T06:50:44;23.17;;;8.60;;
21581;SDS011;10952;50.836;4.348;2023-09-30T06:53:11;21.77;;;7.37;;
21581;SDS011;10952;50.836;4.348;2023-09-30T06:55:38;25.97;;;7.50;;
21581;SDS011;10952;50.836;4.348;2023-09-30T06:58:05;22.23;;;7.57;;
21581;SDS011;10952;50.836;4.348;2023-09-30T07:00:34;25.40;;;8.07;;
21581;SDS011;10952;50.836;4.348;2023-09-30T07:03:00;33.37;;;8.67;;
21581;SDS011;10952;50.836;4.348;2023-09-30T07:05:26;21.90;;;7.80;;
21581;SDS011;10952;50.836;4.348;2023-09-30T07:07:53;24.10;;;7.70;;
21581;SDS011;10952;50.836;4.348;2023-09-30T07:10:19;24.17;;;8.00;;
21581;SDS011;10952;50.836;4.348;2023-09-30T07:12:45;20.87;;;8.30;;
21581;SDS011;10952;50.836;4.348;2023-09-30T07:15:11;27.17;;;8.23;;
21581;SDS011;10952;50.836;4.348;2023-09-30T07:17:39;25.13;;;8.73;;
21581;SDS011;10952;50.836;4.348;2023-09-30T07:20:06;24.60;;;8.43;;
21581;SDS011;10952;50.836;4.348;2023-09-30T07:22:33;30.40;;;8.67;;
21581;SDS011;10952;50.836;4.348;2023-09-30T07:24:59;23.30;;;8.27;;
21581;SDS011;10952;50.836;4.348;2023-09-30T07:27:25;23.17;;;8.03;;
21581;SDS011;10952;50.836;4.348;2023-09-30T07:29:51;30.30;;;8.30;;
21581;SDS011;10952;50.836;4.348;2023-09-30T07:32:17;22.43;;;7.40;;
21581;SDS011;10952;50.836;4.348;2023-09-30T07:34:42;23.13;;;7.80;;
21581;SDS011;10952;50.836;4.348;2023-09-30T07:37:08;26.33;;;8.83;;
21581;SDS011;10952;50.836;4.348;2023-09-30T07:39:35;21.97;;;7.40;;
21581;SDS011;10952;50.836;4.348;2023-09-30T07:42:01;25.67;;;7.80;;
21581;SDS011;10952;50.836;4.348;2023-09-30T07:44:27;20.23;;;6.63;;
21581;SDS011;10952;50.836;4.348;2023-09-30T07:46:53;26.40;;;8.07;;
21581;SDS011;10952;50.836;4.348;2023-09-30T07:49:19;26.07;;;7.10;;
21581;SDS011;10952;50.836;4.348;2023-09-30T07:51:45;22.90;;;7.43;;
21581;SDS011;10952;50.836;4.348;2023-09-30T07:54:11;30.23;;;7.90;;
21581;SDS011;10952;50.836;4.348;2023-09-30T07:56:37;29.60;;;7.80;;
21581;SDS011;10952;50.836;4.348;2023-09-30T07:59:04;22.93;;;7.60;;
21581;SDS011;10952;50.836;4.348;2023-09-30T08:01:30;21.53;;;7.50;;
21581;SDS011;10952;50.836;4.348;2023-09-30T08:03:56;24.57;;;8.73;;
21581;SDS011;10952;50.836;4.348;2023-09-30T08:06:22;28.33;;;8.27;;
21581;SDS011;10952;50.836;4.348;2023-09-30T08:08:48;20.67;;;7.23;;
21581;SDS011;10952;50.836;4.348;2023-09-30T08:11:14;30.83;;;8.03;;
21581;SDS011;10952;50.836;4.348;2023-09-30T08:13:40;30.90;;;7.93;;
21581;SDS011;10952;50.836;4.348;2023-09-30T08:16:06;32.50;;;9.43;;
21581;SDS011;10952;50.836;4.348;2023-09-30T08:18:32;26.30;;;9.00;;
21581;SDS011;10952;50.836;4.348;2023-09-30T08:20:58;32.03;;;8.60;;
21581;SDS011;10952;50.836;4.348;2023-09-30T08:23:23;28.37;;;8.53;;
21581;SDS011;10952;50.836;4.348;2023-09-30T08:25:49;25.33;;;8.03;;
21581;SDS011;10952;50.836;4.348;2023-09-30T08:28:15;23.07;;;7.80;;
21581;SDS011;10952;50.836;4.348;2023-09-30T08:30:41;25.13;;;8.37;;
21581;SDS011;10952;50.836;4.348;2023-09-30T08:33:06;21.70;;;7.53;;
21581;SDS011;10952;50.836;4.348;2023-09-30T08:35:36;27.73;;;7.53;;
21581;SDS011;10952;50.836;4.348;2023-09-30T08:38:05;21.63;;;7.70;;
21581;SDS011;10952;50.836;4.348;2023-09-30T08:40:31;21.20;;;7.63;;
21581;SDS011;10952;50.836;4.348;2023-09-30T08:42:57;24.40;;;7.83;;
21581;SDS011;10952;50.836;4.348;2023-09-30T08:45:22;23.83;;;8.43;;
21581;SDS011;10952;50.836;4.348;2023-09-30T08:47:49;26.53;;;8.10;;
21581;SDS011;10952;50.836;4.348;2023-09-30T08:50:16;32.73;;;8.97;;
21581;SDS011;10952;50.836;4.348;2023-09-30T08:52:43;33.03;;;8.93;;
21581;SDS011;10952;50.836;4.348;2023-09-30T08:55:10;27.20;;;8.57;;
21581;SDS011;10952;50.836;4.348;2023-09-30T08:57:37;27.00;;;8.20;;
21581;SDS011;10952;50.836;4.348;2023-09-30T09:00:05;21.63;;;7.17;;
21581;SDS011;10952;50.836;4.348;2023-09-30T09:02:35;30.47;;;8.43;;
21581;SDS011;10952;50.836;4.348;2023-09-30T09:05:01;26.07;;;7.97;;
21581;SDS011;10952;50.836;4.348;2023-09-30T09:07:27;24.30;;;8.33;;
21581;SDS011;10952;50.836;4.348;2023-09-30T09:10:02;21.80;;;8.00;;
21581;SDS011;10952;50.836;4.348;2023-09-30T09:12:33;23.50;;;7.33;;
21581;SDS011;10952;50.836;4.348;2023-09-30T09:15:00;19.00;;;7.33;;
21581;SDS011;10952;50.836;4.348;2023-09-30T09:17:45;24.47;;;7.80;;
21581;SDS011;10952;50.836;4.348;2023-09-30T09:20:11;26.03;;;8.07;;
21581;SDS011;10952;50.836;4.348;2023-09-30T09:22:45;25.03;;;7.90;;
21581;SDS011;10952;50.836;4.348;2023-09-30T09:25:11;20.97;;;6.70;;
21581;SDS011;10952;50.836;4.348;2023-09-30T09:27:37;19.00;;;6.20;;
21581;SDS011;10952;50.836;4.348;2023-09-30T09:32:51;19.10;;;5.97;;
21581;SDS011;10952;50.836;4.348;2023-09-30T09:35:21;17.47;;;5.53;;
21581;SDS011;10952;50.836;4.348;2023-09-30T09:37:57;16.17;;;5.40;;
21581;SDS011;10952;50.836;4.348;2023-09-30T09:40:30;17.30;;;5.00;;
21581;SDS011;10952;50.836;4.348;2023-09-30T09:42:57;22.07;;;5.73;;
21581;SDS011;10952;50.836;4.348;2023-09-30T09:45:25;22.23;;;5.00;;
21581;SDS011;10952;50.836;4.348;2023-09-30T09:47:52;17.83;;;5.90;;
21581;SDS011;10952;50.836;4.348;2023-09-30T09:50:19;21.00;;;5.33;;
21581;SDS011;10952;50.836;4.348;2023-09-30T09:52:47;22.63;;;5.33;;
21581;SDS011;10952;50.836;4.348;2023-09-30T09:55:16;20.63;;;5.57;;
21581;SDS011;10952;50.836;4.348;2023-09-30T09:57:47;18.07;;;4.67;;
21581;SDS011;10952;50.836;4.348;2023-09-30T10:00:20;18.33;;;5.47;;
21581;SDS011;10952;50.836;4.348;2023-09-30T10:02:48;16.50;;;4.60;;
21581;SDS011;10952;50.836;4.348;2023-09-30T10:05:16;16.23;;;4.23;;
21581;SDS011;10952;50.836;4.348;2023-09-30T10:10:36;12.20;;;4.00;;
21581;SDS011;10952;50.836;4.348;2023-09-30T10:13:02;16.20;;;4.07;;
21581;SDS011;10952;50.836;4.348;2023-09-30T10:17:56;18.50;;;4.10;;
21581;SDS011;10952;50.836;4.348;2023-09-30T10:20:28;22.30;;;5.10;;
21581;SDS011;10952;50.836;4.348;2023-09-30T10:25:42;18.20;;;4.17;;
21581;SDS011;10952;50.836;4.348;2023-09-30T10:31:21;20.10;;;5.30;;
21581;SDS011;10952;50.836;4.348;2023-09-30T10:36:31;22.25;;;5.32;;
21581;SDS011;10952;50.836;4.348;2023-09-30T10:39:00;16.57;;;4.70;;
21581;SDS011;10952;50.836;4.348;2023-09-30T10:46:48;17.33;;;4.20;;
21581;SDS011;10952;50.836;4.348;2023-09-30T10:49:36;20.50;;;5.47;;
21581;SDS011;10952;50.836;4.348;2023-09-30T10:52:03;14.48;;;4.13;;
21581;SDS011;10952;50.836;4.348;2023-09-30T10:54:32;15.88;;;4.82;;
21581;SDS011;10952;50.836;4.348;2023-09-30T10:56:59;10.60;;;3.50;;
21581;SDS011;10952;50.836;4.348;2023-09-30T10:59:26;11.93;;;3.75;;
21581;SDS011;10952;50.836;4.348;2023-09-30T11:01:53;15.93;;;4.30;;
21581;SDS011;10952;50.836;4.348;2023-09-30T11:04:19;16.88;;;4.70;;
21581;SDS011;10952;50.836;4.348;2023-09-30T11:06:45;11.63;;;3.75;;
21581;SDS011;10952;50.836;4.348;2023-09-30T11:09:18;15.52;;;4.32;;
21581;SDS011;10952;50.836;4.348;2023-09-30T11:11:46;15.48;;;3.45;;
21581;SDS011;10952;50.836;4.348;2023-09-30T11:14:26;13.93;;;3.70;;
21581;SDS011;10952;50.836;4.348;2023-09-30T11:16:55;14.57;;;3.55;;
21581;SDS011;10952;50.836;4.348;2023-09-30T11:19:22;19.52;;;3.97;;
21581;SDS011;10952;50.836;4.348;2023-09-30T11:21:51;10.07;;;3.13;;
21581;SDS011;10952;50.836;4.348;2023-09-30T11:24:18;17.50;;;4.03;;
21581;SDS011;10952;50.836;4.348;2023-09-30T11:26:44;15.18;;;3.65;;
21581;SDS011;10952;50.836;4.348;2023-09-30T11:29:15;10.95;;;3.63;;
21581;SDS011;10952;50.836;4.348;2023-09-30T11:31:42;14.27;;;3.75;;
21581;SDS011;10952;50.836;4.348;2023-09-30T11:34:09;9.30;;;3.50;;
21581;SDS011;10952;50.836;4.348;2023-09-30T11:36:40;13.15;;;3.53;;
21581;SDS011;10952;50.836;4.348;2023-09-30T11:39:20;10.10;;;2.67;;
21581;SDS011;10952;50.836;4.348;2023-09-30T11:41:50;9.32;;;2.95;;
21581;SDS011;10952;50.836;4.348;2023-09-30T11:44:17;10.55;;;2.90;;
21581;SDS011;10952;50.836;4.348;2023-09-30T11:46:50;19.27;;;3.85;;
21581;SDS011;10952;50.836;4.348;2023-09-30T11:49:32;9.30;;;2.72;;
21581;SDS011;10952;50.836;4.348;2023-09-30T11:52:06;10.60;;;2.63;;
21581;SDS011;10952;50.836;4.348;2023-09-30T11:54:34;11.25;;;3.65;;
21581;SDS011;10952;50.836;4.348;2023-09-30T11:57:06;9.85;;;2.80;;
21581;SDS011;10952;50.836;4.348;2023-09-30T11:59:36;11.93;;;3.92;;
21581;SDS011;10952;50.836;4.348;2023-09-30T12:02:03;10.13;;;2.88;;
21581;SDS011;10952;50.836;4.348;2023-09-30T12:04:30;10.82;;;3.10;;
21581;SDS011;10952;50.836;4.348;2023-09-30T12:06:56;11.43;;;3.42;;
21581;SDS011;10952;50.836;4.348;2023-09-30T12:09:23;11.02;;;3.33;;
21581;SDS011;10952;50.836;4.348;2023-09-30T12:11:51;8.57;;;3.00;;
21581;SDS011;10952;50.836;4.348;2023-09-30T12:14:19;7.85;;;2.72;;
21581;SDS011;10952;50.836;4.348;2023-09-30T12:16:45;13.77;;;3.22;;
21581;SDS011;10952;50.836;4.348;2023-09-30T12:19:16;16.55;;;5.30;;
21581;SDS011;10952;50.836;4.348;2023-09-30T12:21:43;9.65;;;2.95;;
21581;SDS011;10952;50.836;4.348;2023-09-30T12:24:12;14.57;;;3.53;;
21581;SDS011;10952;50.836;4.348;2023-09-30T12:26:42;12.38;;;4.03;;
21581;SDS011;10952;50.836;4.348;2023-09-30T12:29:16;17.40;;;3.85;;
21581;SDS011;10952;50.836;4.348;2023-09-30T12:31:44;13.35;;;3.53;;
21581;SDS011;10952;50.836;4.348;2023-09-30T12:34:13;14.60;;;3.33;;
21581;SDS011;10952;50.836;4.348;2023-09-30T12:36:40;15.73;;;3.30;;
21581;SDS011;10952;50.836;4.348;2023-09-30T12:39:07;10.95;;;3.03;;
21581;SDS011;10952;50.836;4.348;2023-09-30T12:41:39;11.68;;;2.95;;
21581;SDS011;10952;50.836;4.348;2023-09-30T12:44:08;13.00;;;3.53;;
21581;SDS011;10952;50.836;4.348;2023-09-30T12:46:35;11.50;;;3.33;;
21581;SDS011;10952;50.836;4.348;2023-09-30T12:49:04;13.02;;;3.85;;
21581;SDS011;10952;50.836;4.348;2023-09-30T12:51:34;18.30;;;3.83;;
21581;SDS011;10952;50.836;4.348;2023-09-30T12:54:00;14.85;;;3.15;;
21581;SDS011;10952;50.836;4.348;2023-09-30T12:56:26;16.67;;;3.92;;
21581;SDS011;10952;50.836;4.348;2023-09-30T12:58:54;13.05;;;2.83;;
21581;SDS011;10952;50.836;4.348;2023-09-30T13:01:20;7.50;;;2.67;;
21581;SDS011;10952;50.836;4.348;2023-09-30T13:03:47;11.43;;;3.05;;
21581;SDS011;10952;50.836;4.348;2023-09-30T13:06:13;10.88;;;3.30;;
21581;SDS011;10952;50.836;4.348;2023-09-30T13:08:43;9.98;;;2.80;;
21581;SDS011;10952;50.836;4.348;2023-09-30T13:11:09;13.18;;;4.57;;
21581;SDS011;10952;50.836;4.348;2023-09-30T13:13:36;12.27;;;3.45;;
21581;SDS011;10952;50.836;4.348;2023-09-30T13:16:02;12.75;;;3.88;;
21581;SDS011;10952;50.836;4.348;2023-09-30T13:18:32;10.38;;;2.97;;
21581;SDS011;10952;50.836;4.348;2023-09-30T13:20:58;11.18;;;3.88;;
21581;SDS011;10952;50.836;4.348;2023-09-30T13:23:24;17.02;;;3.67;;
21581;SDS011;10952;50.836;4.348;2023-09-30T13:25:52;9.68;;;3.17;;
21581;SDS011;10952;50.836;4.348;2023-09-30T13:28:18;10.77;;;3.10;;
21581;SDS011;10952;50.836;4.348;2023-09-30T13:30:43;12.20;;;3.23;;
21581;SDS011;10952;50.836;4.348;2023-09-30T13:33:10;13.87;;;4.10;;
21581;SDS011;10952;50.836;4.348;2023-09-30T13:35:36;13.98;;;3.20;;
21581;SDS011;10952;50.836;4.348;2023-09-30T13:38:03;18.83;;;4.17;;
21581;SDS011;10952;50.836;4.348;2023-09-30T13:40:29;9.65;;;2.67;;
21581;SDS011;10952;50.836;4.348;2023-09-30T13:42:54;8.65;;;2.60;;
21581;SDS011;10952;50.836;4.348;2023-09-30T13:45:22;11.73;;;2.60;;
21581;SDS011;10952;50.836;4.348;2023-09-30T13:47:48;8.80;;;2.63;;
21581;SDS011;10952;50.836;4.348;2023-09-30T13:50:13;9.10;;;2.73;;
21581;SDS011;10952;50.836;4.348;2023-09-30T13:52:39;14.00;;;3.37;;
21581;SDS011;10952;50.836;4.348;2023-09-30T13:55:05;12.87;;;2.60;;
21581;SDS011;10952;50.836;4.348;2023-09-30T13:57:31;9.45;;;2.83;;
21581;SDS011;10952;50.836;4.348;2023-09-30T13:59:57;11.13;;;3.40;;
21581;SDS011;10952;50.836;4.348;2023-09-30T14:02:23;6.70;;;3.10;;
21581;SDS011;10952;50.836;4.348;2023-09-30T14:04:49;10.47;;;3.10;;
21581;SDS011;10952;50.836;4.348;2023-09-30T14:07:14;10.97;;;3.10;;
21581;SDS011;10952;50.836;4.348;2023-09-30T14:09:43;12.48;;;2.78;;
21581;SDS011;10952;50.836;4.348;2023-09-30T14:12:09;13.20;;;2.60;;
21581;SDS011;10952;50.836;4.348;2023-09-30T14:14:35;8.45;;;2.67;;
21581;SDS011;10952;50.836;4.348;2023-09-30T14:17:00;14.47;;;2.63;;
21581;SDS011;10952;50.836;4.348;2023-09-30T14:19:32;10.20;;;3.15;;
21581;SDS011;10952;50.836;4.348;2023-09-30T14:21:59;13.33;;;3.60;;
21581;SDS011;10952;50.836;4.348;2023-09-30T14:24:25;10.17;;;3.13;;
21581;SDS011;10952;50.836;4.348;2023-09-30T14:26:51;13.83;;;3.40;;
21581;SDS011;10952;50.836;4.348;2023-09-30T14:29:16;13.47;;;3.73;;
21581;SDS011;10952;50.836;4.348;2023-09-30T14:31:42;12.73;;;2.88;;
21581;SDS011;10952;50.836;4.348;2023-09-30T14:34:08;12.48;;;5.60;;
21581;SDS011;10952;50.836;4.348;2023-09-30T14:36:33;9.87;;;2.93;;
21581;SDS011;10952;50.836;4.348;2023-09-30T14:38:59;11.57;;;3.25;;
21581;SDS011;10952;50.836;4.348;2023-09-30T14:41:25;9.00;;;2.85;;
21581;SDS011;10952;50.836;4.348;2023-09-30T14:43:51;13.30;;;2.87;;
21581;SDS011;10952;50.836;4.348;2023-09-30T14:46:16;13.88;;;2.67;;
21581;SDS011;10952;50.836;4.348;2023-09-30T14:48:42;10.77;;;2.90;;
21581;SDS011;10952;50.836;4.348;2023-09-30T14:51:08;10.55;;;2.63;;
21581;SDS011;10952;50.836;4.348;2023-09-30T14:53:34;14.20;;;3.22;;
21581;SDS011;10952;50.836;4.348;2023-09-30T14:56:00;9.23;;;2.97;;